Nur fliegen ist schöner ....

Willkommen beim Flugservice Bautzen GmbH

Wir sind eine nach europäischen Richtlinien zugelassene Flugschule und lizenziertes Luftfahrtunternehmen. Bei uns können sie nicht nur Rundflüge über die Oberlausitz oder Sachsen buchen, sondern in unserer Flugschule selber das Fliegen erlernen. Erfahrene Fluglehrer stehen ihnen dabei zur Seite.

Wir bieten außerdem Businessflüghe sowie Transportleistungen auf dem Luftweg, ganz nach ihren Wünschen, an. Schauen sie sich in Ruhe bei uns um und wenn sie Fragen haben oder weitere Informationen benötigen, scheuen sie sich nicht Kontakt mit uns aufzunehmen.

Rundflüge können sie ganz leicht auch online in unserem Shop buchen.

Terminkalender

Letzter Monat Mai 2016 Nächster Monat
Mo Di Mi Do Fr Sa So
week 17 1
week 18 2 3 4 5 6 7 8
week 19 9 10 11 12 13 14 15
week 20 16 17 18 19 20 21 22
week 21 23 24 25 26 27 28 29
week 22 30 31

Flugwetterinfo

[Quelle: ADDS]
METAR
EDDC 301020Z 18008KT 130V200 9999 SCT027 SCT042 22/14 Q1005 NOSIG =
TAF
EDDC 300500Z 3006/3106 12007KT CAVOK TEMPO 3007/3010 12015G25KT TSRA BKN040CB TEMPO 3010/3018 18020G35KT 4000 TSRAGR BKN025CB BECMG 3022/3101 20004KT TEMPO 3102/3106 4000 BR =
SR / SS: 02:52 / 19:06 UTC (EDAB Flugplatz Bautzen 2016-05-30)

Webcam EDAB

Webcam EDAB